Time;durP1;ratioP1;P1;durP2;ratioP2;P2;SDS_P1;SDS_P2;PMS_P1;PMS_P2;Temp;Humidity;BMP_temperature;BMP_pressure;BME280_temperature;BME280_humidity;BME280_pressure;Samples;Min_cycle;Max_cycle;Signal;HPM_P1;HPM_P2
2021/04/11 00:00:15;;;;;;;2.30;1.77;;;10.80;99.90;;;;;;1946891;74;21611;-75
2021/04/11 00:02:41;;;;;;;6.55;1.80;;;10.80;99.90;;;;;;1969494;73;21448;-76
2021/04/11 00:05:07;;;;;;;2.72;1.80;;;10.70;99.90;;;;;;1983687;72;21120;-75
2021/04/11 00:07:33;;;;;;;3.42;2.10;;;10.70;99.90;;;;;;1946890;74;21058;-76
2021/04/11 00:10:00;;;;;;;4.50;2.12;;;10.60;99.90;;;;;;1969534;73;21059;-76
2021/04/11 00:12:26;;;;;;;4.67;2.05;;;10.60;99.90;;;;;;1983709;72;21105;-75
2021/04/11 00:14:52;;;;;;;7.45;2.30;;;10.50;99.90;;;;;;1947052;74;21067;-75
2021/04/11 00:17:18;;;;;;;5.58;2.12;;;10.30;99.90;;;;;;1969497;73;21128;-75
2021/04/11 00:19:44;;;;;;;2.33;1.72;;;10.40;99.90;;;;;;1983961;72;21050;-75
2021/04/11 00:22:10;;;;;;;4.95;1.90;;;10.40;99.90;;;;;;1947120;74;21022;-75
2021/04/11 00:24:36;;;;;;;6.42;2.30;;;10.30;99.90;;;;;;1969803;73;21051;-75
2021/04/11 00:27:02;;;;;;;3.60;2.10;;;10.30;99.90;;;;;;1984089;72;21056;-75
2021/04/11 00:29:29;;;;;;;2.67;1.70;;;10.30;99.90;;;;;;1947155;74;21125;-76
2021/04/11 00:31:56;;;;;;;2.47;1.92;;;10.20;99.90;;;;;;1969721;73;21124;-75
2021/04/11 00:34:22;;;;;;;4.85;1.90;;;10.10;99.90;;;;;;1984009;71;21054;-76
2021/04/11 00:36:50;;;;;;;2.60;1.92;;;10.10;99.90;;;;;;1946886;74;21057;-75
2021/04/11 00:39:16;;;;;;;5.97;1.87;;;10.00;99.90;;;;;;1969658;73;21051;-75
2021/04/11 00:41:42;;;;;;;2.72;1.98;;;9.80;99.90;;;;;;1983844;72;21051;-75
2021/04/11 00:44:08;;;;;;;3.20;1.95;;;9.60;99.90;;;;;;1947002;74;21042;-75
2021/04/11 00:46:34;;;;;;;3.12;1.98;;;9.70;99.90;;;;;;1969612;73;21128;-75
2021/04/11 00:49:00;;;;;;;7.35;1.90;;;9.80;99.90;;;;;;1983795;72;21057;-75
2021/04/11 00:51:27;;;;;;;4.42;2.05;;;9.60;99.90;;;;;;1947070;74;21059;-75
2021/04/11 00:53:53;;;;;;;3.58;1.98;;;9.60;99.90;;;;;;1969756;73;21479;-75
2021/04/11 00:56:19;;;;;;;3.35;1.80;;;9.70;99.90;;;;;;1983775;72;21136;-74
2021/04/11 00:58:45;;;;;;;3.62;1.82;;;9.70;99.90;;;;;;1946941;74;21093;-75
2021/04/11 01:01:11;;;;;;;3.65;1.80;;;9.60;99.90;;;;;;1969597;73;21047;-74
2021/04/11 01:03:38;;;;;;;4.15;1.65;;;9.40;99.90;;;;;;1983869;72;21047;-75
2021/04/11 01:06:04;;;;;;;4.28;1.40;;;9.50;99.90;;;;;;1947085;74;21110;-74
2021/04/11 01:08:30;;;;;;;5.25;1.85;;;9.40;99.90;;;;;;1969420;73;21059;-75
2021/04/11 01:10:56;;;;;;;1.67;1.35;;;9.50;99.90;;;;;;1983826;72;21042;-75
2021/04/11 01:13:22;;;;;;;3.08;1.60;;;9.40;99.90;;;;;;1946990;74;21128;-74
2021/04/11 01:15:48;;;;;;;2.75;1.22;;;9.40;99.90;;;;;;1969600;73;21128;-74
2021/04/11 01:18:14;;;;;;;3.30;1.67;;;9.40;99.90;;;;;;1983882;71;21055;-75
2021/04/11 01:20:40;;;;;;;3.37;1.55;;;9.40;99.90;;;;;;1947170;73;21027;-74
2021/04/11 01:23:06;;;;;;;3.52;1.87;;;9.40;99.90;;;;;;1969684;73;21116;-74
2021/04/11 01:25:33;;;;;;;2.10;1.27;;;9.40;99.90;;;;;;1983913;72;21046;-75
2021/04/11 01:27:59;;;;;;;2.77;1.80;;;9.30;99.90;;;;;;1947076;74;21513;-75
2021/04/11 01:30:25;;;;;;;4.42;1.32;;;9.20;99.90;;;;;;1969739;73;21521;-75
2021/04/11 01:32:51;;;;;;;2.12;1.52;;;9.20;99.90;;;;;;1984135;72;21023;-75
2021/04/11 01:35:17;;;;;;;2.35;1.52;;;9.20;99.90;;;;;;1947069;73;21129;-75
2021/04/11 01:37:43;;;;;;;1.35;1.10;;;9.30;99.90;;;;;;1969696;73;21024;-75
2021/04/11 01:40:09;;;;;;;4.05;1.37;;;9.40;99.90;;;;;;1983949;72;21112;-75
2021/04/11 01:42:36;;;;;;;2.72;1.35;;;9.30;99.90;;;;;;1947167;74;21059;-75
2021/04/11 01:45:02;;;;;;;2.02;1.70;;;9.30;99.90;;;;;;1969677;73;21178;-74
2021/04/11 01:47:28;;;;;;;4.62;1.42;;;9.20;99.90;;;;;;1983691;72;21135;-74
2021/04/11 01:49:54;;;;;;;5.30;1.40;;;9.30;99.90;;;;;;1947130;74;21027;-74
2021/04/11 01:52:20;;;;;;;2.10;1.50;;;9.20;99.90;;;;;;1969447;73;21113;-74
2021/04/11 01:54:46;;;;;;;4.78;1.45;;;9.30;99.90;;;;;;1983905;72;21567;-74
2021/04/11 01:57:12;;;;;;;3.58;1.50;;;9.40;99.90;;;;;;1946895;74;21493;-74
2021/04/11 01:59:38;;;;;;;1.92;1.22;;;9.40;99.90;;;;;;1969611;72;21463;-74
2021/04/11 02:02:04;;;;;;;2.45;1.70;;;9.40;99.90;;;;;;1984051;71;21047;-76
2021/04/11 02:04:31;;;;;;;2.47;1.50;;;9.40;99.90;;;;;;1947315;73;21000;-77
2021/04/11 02:06:57;;;;;;;2.08;1.22;;;9.40;99.90;;;;;;1969775;73;21051;-75
2021/04/11 02:09:23;;;;;;;1.62;1.05;;;9.30;99.90;;;;;;1984106;71;21031;-76
2021/04/11 02:11:49;;;;;;;1.35;1.20;;;9.30;99.90;;;;;;1946961;72;21046;-76
2021/04/11 02:14:15;;;;;;;3.98;1.45;;;9.30;99.90;;;;;;1948387;73;21148;-74
2021/04/11 02:16:41;;;;;;;2.85;1.45;;;9.20;99.90;;;;;;1986974;72;21059;-76
2021/04/11 02:19:07;;;;;;;6.08;1.85;;;9.30;99.90;;;;;;1947089;74;21035;-75
2021/04/11 02:21:33;;;;;;;3.52;1.20;;;9.20;99.90;;;;;;1970027;72;21053;-75
2021/04/11 02:24:00;;;;;;;1.32;1.22;;;9.40;99.90;;;;;;1986476;72;21019;-75
2021/04/11 02:26:26;;;;;;;2.00;1.10;;;9.40;99.90;;;;;;1956888;73;21237;-76
2021/04/11 02:28:52;;;;;;;1.25;1.00;;;9.40;99.90;;;;;;1970849;72;21051;-76
2021/04/11 02:31:18;;;;;;;4.00;1.35;;;9.40;99.90;;;;;;1983845;71;21051;-76
2021/04/11 02:33:44;;;;;;;2.22;1.02;;;9.40;99.90;;;;;;1947142;74;21046;-76
2021/04/11 02:36:10;;;;;;;4.28;1.40;;;9.50;99.90;;;;;;1969653;72;21020;-77
2021/04/11 02:38:36;;;;;;;3.80;1.27;;;9.50;99.90;;;;;;1984102;72;21051;-77
2021/04/11 02:41:02;;;;;;;2.00;1.35;;;9.50;99.90;;;;;;1947327;73;21051;-77
2021/04/11 02:43:29;;;;;;;1.40;1.00;;;9.60;99.90;;;;;;1969543;73;21109;-74
2021/04/11 02:45:55;;;;;;;2.02;1.22;;;9.60;99.90;;;;;;1983827;72;21112;-74
2021/04/11 02:48:21;;;;;;;1.37;1.15;;;9.60;99.90;;;;;;1946850;74;21031;-74
2021/04/11 02:50:47;;;;;;;2.15;0.90;;;9.50;99.90;;;;;;1969524;73;21024;-75
2021/04/11 02:53:13;;;;;;;1.87;1.05;;;9.50;99.90;;;;;;1983852;72;21043;-74
2021/04/11 02:55:39;;;;;;;1.27;1.05;;;9.50;99.90;;;;;;1946930;73;21132;-75
2021/04/11 02:58:05;;;;;;;2.40;1.52;;;9.60;99.90;;;;;;1969457;73;21121;-74
2021/04/11 03:00:31;;;;;;;2.45;1.45;;;9.60;99.90;;;;;;1983719;72;21056;-75
2021/04/11 03:02:58;;;;;;;3.58;1.62;;;9.50;99.90;;;;;;1946987;74;21517;-76
2021/04/11 03:05:24;;;;;;;2.22;1.30;;;9.40;99.90;;;;;;1969549;72;21416;-75
2021/04/11 03:07:50;;;;;;;3.40;1.60;;;9.60;99.90;;;;;;1983622;72;21524;-75
2021/04/11 03:10:16;;;;;;;3.17;1.52;;;9.60;99.90;;;;;;1947001;74;21262;-74
2021/04/11 03:12:42;;;;;;;3.22;1.57;;;9.60;99.90;;;;;;1969416;73;21047;-75
2021/04/11 03:15:08;;;;;;;1.75;1.17;;;9.70;99.90;;;;;;1983792;72;21042;-75
2021/04/11 03:17:34;;;;;;;2.47;1.42;;;9.70;99.90;;;;;;1946767;74;21129;-75
2021/04/11 03:20:00;;;;;;;4.10;1.87;;;9.80;99.90;;;;;;1969599;72;21078;-75
2021/04/11 03:22:26;;;;;;;1.92;1.72;;;9.70;99.90;;;;;;1983681;72;21058;-75
2021/04/11 03:24:53;;;;;;;4.50;1.50;;;9.60;99.90;;;;;;1947022;74;21055;-75
2021/04/11 03:27:19;;;;;;;4.72;1.65;;;9.60;99.90;;;;;;1969557;73;21072;-75
2021/04/11 03:29:45;;;;;;;7.85;1.77;;;9.80;99.90;;;;;;1983768;72;21189;-75
2021/04/11 03:32:11;;;;;;;3.22;1.72;;;9.80;99.90;;;;;;1946936;74;21056;-75
2021/04/11 03:34:37;;;;;;;2.02;1.50;;;9.60;99.90;;;;;;1969515;73;21113;-76
2021/04/11 03:37:03;;;;;;;4.60;1.60;;;9.60;99.90;;;;;;1983638;72;21047;-76
2021/04/11 03:39:29;;;;;;;3.98;1.70;;;9.60;99.90;;;;;;1946827;73;21066;-75
2021/04/11 03:41:56;;;;;;;2.58;1.82;;;9.60;99.90;;;;;;1969412;73;21498;-75
2021/04/11 03:44:22;;;;;;;2.05;1.52;;;9.60;99.90;;;;;;1983631;71;21018;-75
2021/04/11 03:46:48;;;;;;;2.83;1.65;;;9.60;99.90;;;;;;1946929;72;21042;-75
2021/04/11 03:49:14;;;;;;;1.90;1.45;;;9.60;99.90;;;;;;1969434;73;21105;-75
2021/04/11 03:51:40;;;;;;;2.33;1.55;;;9.60;99.90;;;;;;1983694;72;21038;-75
2021/04/11 03:54:06;;;;;;;1.60;1.35;;;9.50;99.90;;;;;;1947013;74;21058;-75
2021/04/11 03:56:32;;;;;;;2.37;1.40;;;9.50;99.90;;;;;;1969716;73;21044;-75
2021/04/11 03:58:58;;;;;;;1.80;1.37;;;9.30;99.90;;;;;;1983832;72;21051;-75
2021/04/11 04:01:24;;;;;;;5.70;1.40;;;9.50;99.90;;;;;;1947194;72;21124;-75
2021/04/11 04:03:51;;;;;;;3.52;1.40;;;9.40;99.90;;;;;;1969841;73;21017;-75
2021/04/11 04:06:17;;;;;;;1.30;1.20;;;9.30;99.90;;;;;;1983927;72;21132;-75
2021/04/11 04:08:43;;;;;;;1.47;1.30;;;9.40;99.90;;;;;;1947277;74;21014;-75
2021/04/11 04:11:09;;;;;;;1.40;1.30;;;9.40;99.90;;;;;;1969668;73;21472;-75
2021/04/11 04:13:35;;;;;;;3.27;1.70;;;9.30;99.90;;;;;;1984103;71;21521;-76
2021/04/11 04:16:01;;;;;;;1.82;1.30;;;9.20;99.90;;;;;;1947179;74;21019;-75
2021/04/11 04:18:27;;;;;;;3.35;1.57;;;9.40;99.90;;;;;;1969830;73;21027;-75
2021/04/11 04:20:53;;;;;;;4.53;1.10;;;9.30;99.90;;;;;;1984052;71;21047;-75
2021/04/11 04:23:21;;;;;;;2.05;1.45;;;9.40;99.90;;;;;;1947169;74;21144;-75
2021/04/11 04:25:47;;;;;;;2.30;1.35;;;9.50;99.90;;;;;;1969522;73;21475;-74
2021/04/11 04:28:13;;;;;;;3.37;1.45;;;9.60;99.90;;;;;;1983912;71;21431;-75
2021/04/11 04:30:39;;;;;;;2.22;1.42;;;9.60;99.90;;;;;;1946830;74;21584;-75
2021/04/11 04:33:05;;;;;;;1.25;1.15;;;9.50;99.90;;;;;;1969441;73;21289;-75
2021/04/11 04:35:31;;;;;;;7.62;1.62;;;9.40;99.90;;;;;;1985544;72;21039;-75
2021/04/11 04:37:58;;;;;;;4.97;1.52;;;9.30;99.90;;;;;;1946806;74;21070;-76
2021/04/11 04:40:24;;;;;;;2.47;1.80;;;9.40;99.90;;;;;;1970749;72;21168;-75
2021/04/11 04:42:50;;;;;;;4.55;1.30;;;9.30;99.90;;;;;;1984331;72;21182;-76
2021/04/11 04:45:16;;;;;;;3.05;1.52;;;9.40;99.90;;;;;;1947496;74;21127;-76
2021/04/11 04:47:42;;;;;;;7.87;1.72;;;9.40;99.90;;;;;;1970107;73;21130;-76
2021/04/11 04:50:08;;;;;;;10.88;2.87;;;9.60;99.90;;;;;;1984263;72;21035;-75
2021/04/11 04:52:34;;;;;;;6.87;1.80;;;9.60;99.90;;;;;;1949278;73;21169;-76
2021/04/11 04:55:02;;;;;;;3.50;1.90;;;9.70;99.90;;;;;;1970015;72;21044;-76
2021/04/11 04:57:29;;;;;;;4.33;1.80;;;9.60;99.90;;;;;;1984344;71;21148;-76
2021/04/11 04:59:55;;;;;;;2.77;1.40;;;9.40;99.90;;;;;;1947581;74;21062;-76
2021/04/11 05:02:21;;;;;;;3.72;1.62;;;9.40;99.90;;;;;;1970188;73;21028;-77
2021/04/11 05:04:47;;;;;;;3.08;1.82;;;9.60;99.90;;;;;;1984358;72;21046;-78
2021/04/11 05:07:14;;;;;;;1.82;1.50;;;9.60;99.90;;;;;;1947655;73;21059;-77
2021/04/11 05:09:40;;;;;;;4.00;2.05;;;9.50;99.90;;;;;;1970152;73;21117;-77
2021/04/11 05:12:06;;;;;;;3.33;1.87;;;9.50;99.90;;;;;;1984540;72;21163;-77
2021/04/11 05:14:32;;;;;;;3.87;2.17;;;9.50;99.90;;;;;;1947506;74;21091;-78
2021/04/11 05:16:58;;;;;;;3.52;1.82;;;9.50;99.90;;;;;;1970247;73;21124;-77
2021/04/11 05:19:24;;;;;;;3.70;1.75;;;9.40;99.90;;;;;;1984332;72;21023;-77
2021/04/11 05:21:50;;;;;;;3.02;1.25;;;9.60;99.90;;;;;;1947596;74;21129;-77
2021/04/11 05:24:16;;;;;;;1.52;1.17;;;9.70;99.90;;;;;;1970263;73;21087;-77
2021/04/11 05:26:42;;;;;;;3.33;1.50;;;9.70;99.90;;;;;;1984668;72;21038;-77
2021/04/11 05:29:09;;;;;;;4.92;1.80;;;9.80;99.90;;;;;;1947819;74;21154;-77
2021/04/11 05:31:35;;;;;;;2.60;1.60;;;9.90;99.90;;;;;;1970119;72;21056;-79
2021/04/11 05:34:01;;;;;;;1.92;1.65;;;9.80;99.90;;;;;;1984539;72;21015;-76
2021/04/11 05:36:27;;;;;;;6.85;1.77;;;9.70;99.90;;;;;;1947486;74;21091;-76
2021/04/11 05:38:53;;;;;;;1.80;1.40;;;9.90;99.90;;;;;;1970228;73;21455;-77
2021/04/11 05:41:19;;;;;;;1.92;1.32;;;9.80;99.90;;;;;;1984465;71;21462;-76
2021/04/11 05:43:45;;;;;;;4.15;2.00;;;9.80;99.90;;;;;;1947615;74;21475;-76
2021/04/11 05:46:11;;;;;;;1.75;1.30;;;10.00;99.90;;;;;;1970074;73;21487;-76
2021/04/11 05:48:38;;;;;;;8.95;2.00;;;10.10;99.90;;;;;;1984543;72;21047;-77
2021/04/11 05:51:04;;;;;;;1.77;1.55;;;10.00;99.90;;;;;;1947501;74;21116;-77
2021/04/11 05:53:31;;;;;;;7.90;2.05;;;10.20;99.90;;;;;;1970312;73;21084;-77
2021/04/11 05:55:57;;;;;;;4.33;1.75;;;10.40;99.90;;;;;;1984685;72;21156;-77
2021/04/11 05:58:23;;;;;;;5.92;2.30;;;10.40;99.90;;;;;;1947640;74;21051;-78
2021/04/11 06:00:49;;;;;;;3.45;1.70;;;10.20;99.90;;;;;;1970279;72;21024;-78
2021/04/11 06:03:15;;;;;;;6.65;2.20;;;10.30;99.90;;;;;;1984484;72;21077;-77
2021/04/11 06:05:42;;;;;;;5.28;2.25;;;10.40;99.90;;;;;;1947624;73;21062;-78
2021/04/11 06:08:08;;;;;;;3.25;1.90;;;10.50;99.90;;;;;;1970229;73;21055;-79
2021/04/11 06:10:35;;;;;;;3.62;2.10;;;10.80;99.90;;;;;;1984659;72;21403;-77
2021/04/11 06:13:01;;;;;;;7.92;2.20;;;10.70;99.90;;;;;;1947623;74;21040;-78
2021/04/11 06:15:27;;;;;;;3.65;1.98;;;10.70;99.90;;;;;;1970330;73;21051;-76
2021/04/11 06:17:54;;;;;;;3.62;2.00;;;10.90;99.90;;;;;;1984375;72;21055;-75
2021/04/11 06:20:20;;;;;;;3.75;2.20;;;11.00;99.90;;;;;;1947575;74;21054;-74
2021/04/11 06:22:47;;;;;;;3.85;2.35;;;11.00;99.90;;;;;;1970327;73;21047;-76
2021/04/11 06:25:13;;;;;;;3.00;2.08;;;10.90;99.90;;;;;;1984451;72;21023;-77
2021/04/11 06:27:39;;;;;;;5.97;2.42;;;10.80;99.90;;;;;;1947608;74;21054;-77
2021/04/11 06:30:05;;;;;;;6.75;2.50;;;10.90;99.90;;;;;;1970216;72;21533;-79
2021/04/11 06:32:31;;;;;;;3.12;1.80;;;11.20;99.90;;;;;;1984440;72;21535;-82
2021/04/11 06:34:57;;;;;;;4.78;2.90;;;11.20;99.90;;;;;;1947653;74;21031;-79
2021/04/11 06:37:24;;;;;;;6.25;1.87;;;11.10;99.90;;;;;;1970169;73;21044;-78
2021/04/11 06:39:50;;;;;;;4.33;2.25;;;11.10;99.90;;;;;;1984528;72;21043;-77
2021/04/11 06:42:18;;;;;;;3.95;2.10;;;11.20;99.90;;;;;;1947516;74;21187;-74
2021/04/11 06:44:44;;;;;;;3.90;2.10;;;11.40;99.90;;;;;;1970276;72;21083;-77
2021/04/11 06:47:10;;;;;;;3.42;2.02;;;11.60;99.90;;;;;;1984696;72;21046;-80
2021/04/11 06:49:37;;;;;;;2.30;1.85;;;11.70;99.90;;;;;;1947702;74;21078;-78
2021/04/11 06:52:03;;;;;;;4.87;2.20;;;11.90;99.90;;;;;;1970305;73;21046;-78
2021/04/11 06:54:29;;;;;;;5.95;2.30;;;12.00;99.90;;;;;;1984494;72;21046;-79
2021/04/11 06:56:56;;;;;;;3.98;2.10;;;12.20;99.90;;;;;;1947905;72;21043;-80
2021/04/11 06:59:22;;;;;;;3.27;1.92;;;12.30;99.90;;;;;;1972475;73;21024;-80
2021/04/11 07:01:48;;;;;;;4.25;1.82;;;12.40;99.90;;;;;;2011400;71;21044;-78
2021/04/11 07:04:14;;;;;;;4.47;2.30;;;12.40;99.90;;;;;;2020985;71;21039;-79
2021/04/11 07:06:40;;;;;;;2.87;1.82;;;12.70;99.90;;;;;;2021051;71;21109;-81
2021/04/11 07:09:06;;;;;;;8.15;1.60;;;13.00;99.90;;;;;;2021152;69;21054;-81
2021/04/11 07:11:32;;;;;;;2.42;1.60;;;13.20;99.90;;;;;;2020893;71;20988;-76
2021/04/11 07:13:58;;;;;;;2.12;1.50;;;13.30;99.90;;;;;;2020903;71;21048;-77
2021/04/11 07:16:25;;;;;;;3.70;1.57;;;13.30;99.90;;;;;;2020927;71;21116;-77
2021/04/11 07:18:51;;;;;;;3.50;1.40;;;13.50;99.90;;;;;;2020797;71;21046;-77
2021/04/11 07:21:17;;;;;;;1.75;1.45;;;13.50;99.90;;;;;;2022786;69;21075;-79
2021/04/11 07:23:46;;;;;;;2.20;1.70;;;13.40;99.90;;;;;;2021001;71;21075;-78
2021/04/11 07:26:13;;;;;;;8.10;1.72;;;13.70;99.90;;;;;;2015861;71;21083;-78
2021/04/11 07:28:39;;;;;;;2.27;1.60;;;13.80;99.90;;;;;;2022455;69;21051;-79
2021/04/11 07:31:05;;;;;;;1.55;1.20;;;14.10;99.90;;;;;;2021031;71;21068;-78
2021/04/11 07:33:31;;;;;;;2.05;1.47;;;14.20;99.90;;;;;;2020891;71;21051;-78
2021/04/11 07:35:58;;;;;;;8.33;1.52;;;14.20;99.90;;;;;;2020893;70;21465;-77
2021/04/11 07:38:26;;;;;;;3.15;1.60;;;14.40;99.90;;;;;;2020821;71;21027;-76
2021/04/11 07:40:52;;;;;;;7.42;1.70;;;14.50;99.90;;;;;;2020804;69;21448;-76
2021/04/11 07:43:18;;;;;;;9.15;1.40;;;14.50;99.90;;;;;;2020923;71;21072;-76
2021/04/11 07:45:44;;;;;;;2.02;1.52;;;14.40;99.90;;;;;;2020846;69;21043;-77
2021/04/11 07:48:11;;;;;;;3.33;1.40;;;14.40;99.90;;;;;;2021017;70;21060;-79
2021/04/11 07:50:37;;;;;;;2.20;1.22;;;14.70;99.90;;;;;;2020851;71;21094;-79
2021/04/11 07:53:03;;;;;;;1.70;1.20;;;14.90;99.90;;;;;;2020887;71;21047;-89
2021/04/11 07:55:29;;;;;;;5.40;1.55;;;15.10;99.90;;;;;;2020956;71;21451;-78
2021/04/11 07:57:56;;;;;;;6.25;1.60;;;15.20;99.90;;;;;;2020821;71;21088;-79
2021/04/11 08:00:22;;;;;;;1.50;1.00;;;15.40;99.90;;;;;;2020832;71;21040;-83
2021/04/11 08:02:49;;;;;;;2.12;1.22;;;15.90;99.90;;;;;;2020867;71;21027;-78
2021/04/11 08:05:15;;;;;;;4.42;1.32;;;15.70;99.90;;;;;;2020898;71;21471;-79
2021/04/11 08:07:42;;;;;;;3.20;1.55;;;15.90;99.90;;;;;;2020840;71;21047;-78
2021/04/11 08:10:08;;;;;;;5.35;1.00;;;15.70;99.90;;;;;;2020944;71;21443;-79
2021/04/11 08:12:34;;;;;;;1.55;0.90;;;15.40;99.90;;;;;;2020852;71;21042;-78
2021/04/11 08:15:00;;;;;;;1.52;1.00;;;15.70;99.90;;;;;;2020846;71;21043;-81
2021/04/11 08:17:27;;;;;;;1.37;0.95;;;15.80;99.90;;;;;;2020822;71;21075;-79
2021/04/11 08:19:53;;;;;;;1.98;1.20;;;16.00;99.90;;;;;;2020846;71;21105;-78
2021/04/11 08:22:19;;;;;;;1.42;0.78;;;16.10;99.90;;;;;;2020935;71;21134;-78
2021/04/11 08:24:46;;;;;;;1.05;0.68;;;16.10;99.90;;;;;;2020826;70;21027;-79
2021/04/11 08:27:12;;;;;;;0.82;0.70;;;16.40;99.90;;;;;;2020854;71;21047;-79
2021/04/11 08:29:38;;;;;;;0.93;0.60;;;16.30;99.90;;;;;;2020846;71;21055;-77
2021/04/11 08:32:04;;;;;;;2.05;1.20;;;16.50;99.90;;;;;;2020807;69;21435;-77
2021/04/11 08:34:30;;;;;;;2.05;0.80;;;16.50;99.90;;;;;;2020714;71;21435;-77
2021/04/11 08:36:56;;;;;;;1.70;0.70;;;16.80;99.90;;;;;;2020820;71;21082;-78
2021/04/11 08:39:23;;;;;;;1.50;0.80;;;16.90;99.90;;;;;;2020794;71;21039;-78
2021/04/11 08:41:49;;;;;;;3.50;0.82;;;17.10;99.90;;;;;;2020958;71;21072;-82
2021/04/11 08:44:15;;;;;;;0.88;0.57;;;17.60;99.90;;;;;;2021077;71;21043;-77
2021/04/11 08:46:41;;;;;;;1.70;0.90;;;17.90;99.90;;;;;;2020971;71;21108;-75
2021/04/11 08:49:07;;;;;;;5.08;0.80;;;18.30;99.90;;;;;;2020960;71;21151;-75
2021/04/11 08:51:33;;;;;;;1.57;0.60;;;18.10;99.90;;;;;;2020994;69;21043;-75
2021/04/11 08:54:01;;;;;;;2.37;0.68;;;17.70;99.90;;;;;;2020912;69;21037;-74
2021/04/11 08:56:27;;;;;;;1.57;0.95;;;17.90;99.90;;;;;;2020847;71;21200;-75
2021/04/11 08:58:53;;;;;;;2.08;0.70;;;17.80;99.90;;;;;;2020922;71;21039;-75
2021/04/11 09:01:19;;;;;;;1.85;0.68;;;18.30;99.90;;;;;;2020948;71;21039;-75
2021/04/11 09:03:48;;;;;;;0.57;0.50;;;18.50;99.90;;;;;;2020958;71;21035;-75
2021/04/11 09:06:15;;;;;;;1.80;0.68;;;18.00;99.90;;;;;;2020916;71;21424;-76
2021/04/11 09:08:41;;;;;;;5.90;0.60;;;18.00;99.90;;;;;;2020940;71;21455;-79
2021/04/11 09:11:07;;;;;;;1.45;0.65;;;18.20;99.90;;;;;;2020931;71;21561;-78
2021/04/11 09:13:33;;;;;;;2.00;0.90;;;18.50;99.90;;;;;;2020956;71;21020;-77
2021/04/11 09:15:59;;;;;;;0.60;0.60;;;18.40;99.90;;;;;;2020912;71;21116;-77
2021/04/11 09:18:25;;;;;;;1.07;0.47;;;18.00;99.90;;;;;;2020884;71;21125;-77
2021/04/11 09:20:51;;;;;;;5.72;0.88;;;17.90;99.90;;;;;;2020856;71;21117;-78
2021/04/11 09:23:17;;;;;;;1.15;0.70;;;17.90;99.90;;;;;;2020912;71;21080;-78
2021/04/11 09:25:44;;;;;;;1.05;0.70;;;18.00;99.90;;;;;;2020881;71;21108;-76
2021/04/11 09:28:10;;;;;;;2.02;1.12;;;18.00;99.90;;;;;;2020852;71;21082;-77
2021/04/11 09:30:36;;;;;;;1.90;0.70;;;18.10;99.90;;;;;;2020900;71;21047;-77
2021/04/11 09:33:02;;;;;;;1.50;0.72;;;18.20;99.90;;;;;;2020828;69;21020;-77
2021/04/11 09:35:28;;;;;;;8.10;1.45;;;18.30;99.90;;;;;;2020834;71;21116;-76
2021/04/11 09:37:55;;;;;;;1.35;0.80;;;18.20;99.90;;;;;;2020975;71;21040;-77
2021/04/11 09:40:21;;;;;;;3.27;1.07;;;18.00;99.90;;;;;;2021008;71;21552;-77
2021/04/11 09:42:47;;;;;;;1.70;0.88;;;18.10;99.90;;;;;;2020992;71;21143;-80
2021/04/11 09:45:13;;;;;;;1.95;0.80;;;18.20;99.90;;;;;;2020916;71;21473;-78
2021/04/11 09:47:40;;;;;;;5.60;0.98;;;18.50;99.90;;;;;;2020942;70;21051;-77
2021/04/11 09:50:06;;;;;;;1.77;0.70;;;18.70;99.90;;;;;;2011796;71;21035;-77
2021/04/11 09:52:32;;;;;;;0.95;0.70;;;18.50;99.90;;;;;;2020902;71;21047;-78
2021/04/11 09:54:58;;;;;;;2.02;0.85;;;18.60;99.90;;;;;;2020980;69;21105;-76
2021/04/11 09:57:24;;;;;;;0.90;0.55;;;18.70;99.90;;;;;;2020926;71;21112;-79
2021/04/11 09:59:50;;;;;;;0.95;0.62;;;19.00;99.90;;;;;;2020885;71;21051;-78
2021/04/11 10:02:16;;;;;;;2.02;0.88;;;18.60;99.90;;;;;;2021006;71;21043;-77
2021/04/11 10:04:42;;;;;;;1.98;0.70;;;18.80;99.90;;;;;;2021073;71;21121;-77
2021/04/11 10:07:09;;;;;;;1.30;0.65;;;19.00;99.90;;;;;;2021134;71;21064;-76
2021/04/11 10:09:35;;;;;;;1.67;0.70;;;19.40;99.90;;;;;;2021101;71;21142;-77
2021/04/11 10:12:01;;;;;;;0.60;0.50;;;19.80;99.90;;;;;;2020894;71;21114;-79
2021/04/11 10:14:27;;;;;;;5.58;0.80;;;20.20;99.90;;;;;;2021057;71;21119;-78
2021/04/11 10:16:53;;;;;;;1.55;0.40;;;20.30;99.90;;;;;;2021029;71;21072;-78
2021/04/11 10:19:19;;;;;;;3.65;0.82;;;19.70;99.00;;;;;;2021068;71;21157;-78
2021/04/11 10:21:45;;;;;;;0.65;0.42;;;19.50;98.30;;;;;;2020818;71;21011;-77
2021/04/11 10:24:11;;;;;;;0.40;0.40;;;19.50;97.10;;;;;;2020894;71;21039;-78
2021/04/11 10:26:38;;;;;;;0.98;0.40;;;19.10;97.90;;;;;;2021010;71;21177;-77
2021/04/11 10:29:05;;;;;;;0.72;0.40;;;18.90;96.90;;;;;;2021142;71;21069;-77
2021/04/11 10:31:31;;;;;;;3.02;0.88;;;19.00;97.60;;;;;;2020983;70;21557;-78
2021/04/11 10:33:57;;;;;;;2.27;0.70;;;19.00;97.10;;;;;;2020937;71;21507;-79
2021/04/11 10:36:23;;;;;;;0.30;0.30;;;19.00;96.70;;;;;;2021025;70;21472;-77
2021/04/11 10:38:49;;;;;;;0.50;0.50;;;18.90;97.20;;;;;;2020810;71;21124;-77
2021/04/11 10:41:17;;;;;;;5.97;0.90;;;19.10;97.00;;;;;;2021069;71;21133;-78
2021/04/11 10:43:43;;;;;;;4.47;0.90;;;19.50;96.40;;;;;;2021165;71;21072;-77
2021/04/11 10:46:09;;;;;;;0.80;0.30;;;19.90;95.60;;;;;;2021284;71;21068;-77
2021/04/11 10:48:35;;;;;;;2.22;0.68;;;21.10;93.60;;;;;;2020835;69;21104;-78
2021/04/11 10:51:01;;;;;;;0.68;0.40;;;21.90;93.10;;;;;;2021027;71;21084;-77
2021/04/11 10:53:27;;;;;;;3.45;0.50;;;22.60;88.10;;;;;;2021097;70;21101;-78
2021/04/11 10:55:54;;;;;;;5.28;0.50;;;22.70;87.60;;;;;;2021059;71;21139;-79
2021/04/11 10:58:20;;;;;;;1.47;0.50;;;23.10;84.20;;;;;;2020909;71;21043;-79
2021/04/11 11:00:48;;;;;;;1.40;0.68;;;22.20;83.20;;;;;;2020840;71;21113;-80
2021/04/11 11:03:14;;;;;;;2.55;0.45;;;21.70;84.50;;;;;;2020709;69;21129;-80
2021/04/11 11:05:40;;;;;;;0.55;0.30;;;22.50;83.40;;;;;;2020841;71;21043;-76
2021/04/11 11:08:06;;;;;;;1.17;0.57;;;22.90;80.80;;;;;;2021109;71;21064;-77
2021/04/11 11:10:34;;;;;;;0.90;0.35;;;22.20;80.30;;;;;;2020874;70;21047;-76
2021/04/11 11:13:00;;;;;;;2.10;0.62;;;22.30;80.80;;;;;;2020863;71;21047;-76
2021/04/11 11:15:26;;;;;;;3.72;0.82;;;22.30;79.90;;;;;;2020875;71;21012;-76
2021/04/11 11:17:52;;;;;;;0.47;0.47;;;21.90;79.20;;;;;;2020798;70;21112;-76
2021/04/11 11:20:18;;;;;;;0.55;0.40;;;20.80;82.50;;;;;;2020907;71;21124;-77
2021/04/11 11:22:44;;;;;;;3.08;0.50;;;20.50;83.90;;;;;;2020824;71;21016;-79
2021/04/11 11:25:10;;;;;;;1.57;0.50;;;20.40;87.50;;;;;;2021074;71;21068;-78
2021/04/11 11:27:36;;;;;;;0.62;0.57;;;20.20;86.00;;;;;;2020773;69;21113;-78
2021/04/11 11:30:03;;;;;;;1.57;0.50;;;20.00;85.90;;;;;;2020915;71;21171;-79
2021/04/11 11:32:29;;;;;;;1.90;1.10;;;19.80;86.70;;;;;;2020866;71;21430;-78
2021/04/11 11:34:55;;;;;;;6.47;0.90;;;19.90;87.30;;;;;;2020923;71;21557;-81
2021/04/11 11:37:21;;;;;;;1.17;0.70;;;20.00;88.40;;;;;;2020975;71;21448;-77
2021/04/11 11:39:47;;;;;;;1.17;0.50;;;20.20;86.40;;;;;;2020852;71;21517;-78
2021/04/11 11:42:13;;;;;;;1.95;0.95;;;20.20;86.10;;;;;;2020871;71;21376;-78
2021/04/11 11:44:39;;;;;;;1.95;1.10;;;20.30;86.50;;;;;;2020747;71;21039;-78
2021/04/11 11:47:06;;;;;;;2.65;0.85;;;20.40;88.10;;;;;;2020843;71;21043;-78
2021/04/11 11:49:32;;;;;;;1.30;0.70;;;20.50;88.20;;;;;;2020851;69;21467;-78
2021/04/11 11:51:58;;;;;;;0.20;0.20;;;20.70;85.70;;;;;;2016080;70;21491;-78
2021/04/11 11:54:24;;;;;;;1.30;0.40;;;20.70;85.00;;;;;;2022598;71;21068;-78
2021/04/11 11:56:50;;;;;;;0.55;0.50;;;20.50;86.80;;;;;;2021093;69;21039;-77
2021/04/11 11:59:17;;;;;;;1.85;0.80;;;20.80;87.30;;;;;;2024610;69;21149;-78
2021/04/11 12:01:43;;;;;;;1.17;0.40;;;20.80;86.30;;;;;;2021118;71;21072;-78
2021/04/11 12:04:09;;;;;;;0.40;0.40;;;21.10;84.20;;;;;;2022462;71;21047;-78
2021/04/11 12:06:35;;;;;;;2.12;0.60;;;21.10;84.20;;;;;;2021057;71;21088;-77
2021/04/11 12:09:03;;;;;;;1.60;0.60;;;21.40;83.10;;;;;;2020819;69;21132;-77
2021/04/11 12:11:29;;;;;;;0.37;0.33;;;21.60;83.80;;;;;;2020958;71;21095;-76
2021/04/11 12:13:55;;;;;;;3.72;0.72;;;21.90;82.40;;;;;;2020710;71;21121;-76
2021/04/11 12:16:21;;;;;;;0.50;0.37;;;22.30;81.20;;;;;;2020963;71;21043;-77
2021/04/11 12:18:47;;;;;;;1.90;0.50;;;22.40;81.60;;;;;;2020870;71;21078;-76
2021/04/11 12:21:13;;;;;;;1.07;0.50;;;21.30;82.80;;;;;;2020768;71;20999;-77
2021/04/11 12:23:40;;;;;;;1.57;0.75;;;21.10;83.40;;;;;;2020999;71;21068;-77
2021/04/11 12:26:06;;;;;;;2.72;0.70;;;21.30;84.50;;;;;;2020952;71;21043;-75
2021/04/11 12:28:32;;;;;;;8.78;0.65;;;21.90;81.80;;;;;;2021081;69;21079;-76
2021/04/11 12:30:58;;;;;;;0.40;0.40;;;22.00;81.70;;;;;;2021094;71;21531;-75
2021/04/11 12:33:24;;;;;;;1.57;0.50;;;21.70;81.60;;;;;;2020916;71;21415;-77
2021/04/11 12:35:50;;;;;;;0.88;0.60;;;22.20;81.10;;;;;;2020974;71;21113;-74
2021/04/11 12:38:16;;;;;;;0.33;0.30;;;21.90;79.20;;;;;;2021043;71;21068;-78
2021/04/11 12:40:43;;;;;;;1.00;0.60;;;22.00;79.90;;;;;;2021130;71;21064;-79
2021/04/11 12:43:09;;;;;;;0.35;0.30;;;22.70;78.00;;;;;;2020975;71;21133;-77